sensor_id;sensor_type;location;lat;lon;timestamp;pressure;altitude;pressure_sealevel;temperature
73734;BMP280;62039;50.000;9.064;2023-04-25T00:01:29;99687.59;;;10.32
73734;BMP280;62039;50.000;9.064;2023-04-25T00:03:56;99679.31;;;10.29
73734;BMP280;62039;50.000;9.064;2023-04-25T00:06:23;99674.41;;;10.26
73734;BMP280;62039;50.000;9.064;2023-04-25T00:08:50;99678.81;;;10.25
73734;BMP280;62039;50.000;9.064;2023-04-25T00:11:17;99676.41;;;10.24
73734;BMP280;62039;50.000;9.064;2023-04-25T00:13:47;99672.16;;;10.23
73734;BMP280;62039;50.000;9.064;2023-04-25T00:16:14;99671.53;;;10.20
73734;BMP280;62039;50.000;9.064;2023-04-25T00:18:41;99675.13;;;10.19
73734;BMP280;62039;50.000;9.064;2023-04-25T00:21:08;99668.63;;;10.15
73734;BMP280;62039;50.000;9.064;2023-04-25T00:23:35;99676.63;;;10.14
73734;BMP280;62039;50.000;9.064;2023-04-25T00:26:02;99675.00;;;10.13
73734;BMP280;62039;50.000;9.064;2023-04-25T00:28:29;99675.19;;;10.11
73734;BMP280;62039;50.000;9.064;2023-04-25T00:30:59;99678.59;;;10.12
73734;BMP280;62039;50.000;9.064;2023-04-25T00:33:26;99679.59;;;10.11
73734;BMP280;62039;50.000;9.064;2023-04-25T00:35:53;99678.28;;;10.07
73734;BMP280;62039;50.000;9.064;2023-04-25T00:38:20;99681.25;;;10.04
73734;BMP280;62039;50.000;9.064;2023-04-25T00:40:47;99684.03;;;10.02
73734;BMP280;62039;50.000;9.064;2023-04-25T00:43:14;99680.78;;;10.00
73734;BMP280;62039;50.000;9.064;2023-04-25T00:45:42;99679.97;;;10.00
73734;BMP280;62039;50.000;9.064;2023-04-25T00:48:13;99682.94;;;9.97
73734;BMP280;62039;50.000;9.064;2023-04-25T00:50:41;99684.88;;;9.95
73734;BMP280;62039;50.000;9.064;2023-04-25T00:53:08;99682.59;;;9.92
73734;BMP280;62039;50.000;9.064;2023-04-25T00:55:35;99681.81;;;9.91
73734;BMP280;62039;50.000;9.064;2023-04-25T00:58:02;99678.56;;;9.89
73734;BMP280;62039;50.000;9.064;2023-04-25T01:00:29;99671.72;;;9.88
73734;BMP280;62039;50.000;9.064;2023-04-25T01:02:56;99672.84;;;9.86
73734;BMP280;62039;50.000;9.064;2023-04-25T01:05:26;99667.34;;;9.80
73734;BMP280;62039;50.000;9.064;2023-04-25T01:07:53;99664.91;;;9.79
73734;BMP280;62039;50.000;9.064;2023-04-25T01:10:20;99667.88;;;9.76
73734;BMP280;62039;50.000;9.064;2023-04-25T01:12:47;99669.81;;;9.74
73734;BMP280;62039;50.000;9.064;2023-04-25T01:15:14;99664.97;;;9.71
73734;BMP280;62039;50.000;9.064;2023-04-25T01:17:41;99667.75;;;9.69
73734;BMP280;62039;50.000;9.064;2023-04-25T01:20:09;99667.09;;;9.67
73734;BMP280;62039;50.000;9.064;2023-04-25T01:22:40;99672.31;;;9.67
73734;BMP280;62039;50.000;9.064;2023-04-25T01:25:07;99665.47;;;9.66
73734;BMP280;62039;50.000;9.064;2023-04-25T01:27:35;99665.63;;;9.65
73734;BMP280;62039;50.000;9.064;2023-04-25T01:30:03;99660.75;;;9.62
73734;BMP280;62039;50.000;9.064;2023-04-25T01:32:31;99658.63;;;9.57
73734;BMP280;62039;50.000;9.064;2023-04-25T01:34:58;99663.03;;;9.57
73734;BMP280;62039;50.000;9.064;2023-04-25T01:37:24;99660.59;;;9.55
73734;BMP280;62039;50.000;9.064;2023-04-25T01:39:54;99657.16;;;9.55
73734;BMP280;62039;50.000;9.064;2023-04-25T01:42:21;99651.31;;;9.53
73734;BMP280;62039;50.000;9.064;2023-04-25T01:44:48;99660.91;;;9.52
73734;BMP280;62039;50.000;9.064;2023-04-25T01:47:15;99660.91;;;9.52
73734;BMP280;62039;50.000;9.064;2023-04-25T01:49:42;99660.91;;;9.52
73734;BMP280;62039;50.000;9.064;2023-04-25T01:52:09;99657.50;;;9.52
73734;BMP280;62039;50.000;9.064;2023-04-25T01:54:36;99655.09;;;9.50
73734;BMP280;62039;50.000;9.064;2023-04-25T01:57:05;99660.28;;;9.50
73734;BMP280;62039;50.000;9.064;2023-04-25T01:59:32;99670.53;;;9.52
73734;BMP280;62039;50.000;9.064;2023-04-25T02:01:59;99670.53;;;9.52
73734;BMP280;62039;50.000;9.064;2023-04-25T02:04:26;99669.72;;;9.51
73734;BMP280;62039;50.000;9.064;2023-04-25T02:06:54;99671.34;;;9.52
73734;BMP280;62039;50.000;9.064;2023-04-25T02:09:21;99678.19;;;9.53
73734;BMP280;62039;50.000;9.064;2023-04-25T02:11:48;99671.19;;;9.54
73734;BMP280;62039;50.000;9.064;2023-04-25T02:14:17;99668.56;;;9.54
73734;BMP280;62039;50.000;9.064;2023-04-25T02:16:44;99664.19;;;9.54
73734;BMP280;62039;50.000;9.064;2023-04-25T02:19:11;99665.97;;;9.54
73734;BMP280;62039;50.000;9.064;2023-04-25T02:21:38;99664.19;;;9.54
73734;BMP280;62039;50.000;9.064;2023-04-25T02:24:06;99671.03;;;9.55
73734;BMP280;62039;50.000;9.064;2023-04-25T02:26:34;99675.25;;;9.56
73734;BMP280;62039;50.000;9.064;2023-04-25T02:29:01;99669.22;;;9.56
73734;BMP280;62039;50.000;9.064;2023-04-25T02:31:30;99667.44;;;9.56
73734;BMP280;62039;50.000;9.064;2023-04-25T02:33:57;99674.28;;;9.57
73734;BMP280;62039;50.000;9.064;2023-04-25T02:36:24;99668.25;;;9.57
73734;BMP280;62039;50.000;9.064;2023-04-25T02:38:51;99668.25;;;9.57
73734;BMP280;62039;50.000;9.064;2023-04-25T02:41:18;99663.03;;;9.57
73734;BMP280;62039;50.000;9.064;2023-04-25T02:43:45;99666.47;;;9.57
73734;BMP280;62039;50.000;9.064;2023-04-25T02:46:12;99656.03;;;9.57
73734;BMP280;62039;50.000;9.064;2023-04-25T02:48:41;99653.44;;;9.57
73734;BMP280;62039;50.000;9.064;2023-04-25T02:51:08;99651.78;;;9.56
73734;BMP280;62039;50.000;9.064;2023-04-25T02:53:35;99652.59;;;9.57
73734;BMP280;62039;50.000;9.064;2023-04-25T02:56:02;99653.44;;;9.57
73734;BMP280;62039;50.000;9.064;2023-04-25T02:58:29;99648.22;;;9.57
73734;BMP280;62039;50.000;9.064;2023-04-25T03:00:56;99639.56;;;9.57
73734;BMP280;62039;50.000;9.064;2023-04-25T03:03:23;99648.38;;;9.56
73734;BMP280;62039;50.000;9.064;2023-04-25T03:05:53;99647.41;;;9.57
73734;BMP280;62039;50.000;9.064;2023-04-25T03:08:20;99644.94;;;9.55
73734;BMP280;62039;50.000;9.064;2023-04-25T03:10:47;99643.16;;;9.56
73734;BMP280;62039;50.000;9.064;2023-04-25T03:13:14;99639.75;;;9.55
73734;BMP280;62039;50.000;9.064;2023-04-25T03:15:41;99641.38;;;9.56
73734;BMP280;62039;50.000;9.064;2023-04-25T03:18:07;99648.38;;;9.56
73734;BMP280;62039;50.000;9.064;2023-04-25T03:20:35;99650.97;;;9.56
73734;BMP280;62039;50.000;9.064;2023-04-25T03:23:04;99654.41;;;9.56
73734;BMP280;62039;50.000;9.064;2023-04-25T03:25:31;99651.13;;;9.54
73734;BMP280;62039;50.000;9.064;2023-04-25T03:27:58;99650.16;;;9.55
73734;BMP280;62039;50.000;9.064;2023-04-25T03:30:25;99653.75;;;9.54
73734;BMP280;62039;50.000;9.064;2023-04-25T03:32:52;99658.16;;;9.54
73734;BMP280;62039;50.000;9.064;2023-04-25T03:35:19;99662.56;;;9.53
73734;BMP280;62039;50.000;9.064;2023-04-25T03:37:46;99663.53;;;9.52
73734;BMP280;62039;50.000;9.064;2023-04-25T03:40:15;99669.72;;;9.51
73734;BMP280;62039;50.000;9.064;2023-04-25T03:42:42;99664.50;;;9.51
73734;BMP280;62039;50.000;9.064;2023-04-25T03:45:11;99664.69;;;9.50
73734;BMP280;62039;50.000;9.064;2023-04-25T03:47:38;99660.47;;;9.49
73734;BMP280;62039;50.000;9.064;2023-04-25T03:50:06;99672.69;;;9.48
73734;BMP280;62039;50.000;9.064;2023-04-25T03:52:33;99675.44;;;9.47
73734;BMP280;62039;50.000;9.064;2023-04-25T03:55:00;99676.41;;;9.46
73734;BMP280;62039;50.000;9.064;2023-04-25T03:57:29;99680.81;;;9.45
73734;BMP280;62039;50.000;9.064;2023-04-25T03:59:56;99679.22;;;9.44
73734;BMP280;62039;50.000;9.064;2023-04-25T04:02:23;99688.00;;;9.43
73734;BMP280;62039;50.000;9.064;2023-04-25T04:04:50;99684.75;;;9.41
73734;BMP280;62039;50.000;9.064;2023-04-25T04:07:18;99690.78;;;9.41
73734;BMP280;62039;50.000;9.064;2023-04-25T04:09:45;99683.13;;;9.40
73734;BMP280;62039;50.000;9.064;2023-04-25T04:12:12;99677.25;;;9.38
73734;BMP280;62039;50.000;9.064;2023-04-25T04:14:41;99692.13;;;9.37
73734;BMP280;62039;50.000;9.064;2023-04-25T04:17:08;99687.06;;;9.36
73734;BMP280;62039;50.000;9.064;2023-04-25T04:19:35;99688.19;;;9.33
73734;BMP280;62039;50.000;9.064;2023-04-25T04:22:02;99687.38;;;9.33
73734;BMP280;62039;50.000;9.064;2023-04-25T04:24:29;99682.16;;;9.33
73734;BMP280;62039;50.000;9.064;2023-04-25T04:26:56;99693.41;;;9.33
73734;BMP280;62039;50.000;9.064;2023-04-25T04:29:23;99692.59;;;9.33
73734;BMP280;62039;50.000;9.064;2023-04-25T04:31:52;99694.53;;;9.31
73734;BMP280;62039;50.000;9.064;2023-04-25T04:34:19;99698.97;;;9.30
73734;BMP280;62039;50.000;9.064;2023-04-25T04:36:46;99697.34;;;9.29
73734;BMP280;62039;50.000;9.064;2023-04-25T04:39:13;99689.69;;;9.28
73734;BMP280;62039;50.000;9.064;2023-04-25T04:41:40;99703.69;;;9.27
73734;BMP280;62039;50.000;9.064;2023-04-25T04:44:07;99706.44;;;9.25
73734;BMP280;62039;50.000;9.064;2023-04-25T04:46:34;99707.44;;;9.24
73734;BMP280;62039;50.000;9.064;2023-04-25T04:49:04;99711.84;;;9.24
73734;BMP280;62039;50.000;9.064;2023-04-25T04:51:31;99715.44;;;9.23
73734;BMP280;62039;50.000;9.064;2023-04-25T04:53:58;99715.59;;;9.21
73734;BMP280;62039;50.000;9.064;2023-04-25T04:56:25;99722.59;;;9.21
73734;BMP280;62039;50.000;9.064;2023-04-25T04:58:52;99728.78;;;9.20
73734;BMP280;62039;50.000;9.064;2023-04-25T05:01:19;99723.09;;;9.16
73734;BMP280;62039;50.000;9.064;2023-04-25T05:03:46;99724.38;;;9.12
73734;BMP280;62039;50.000;9.064;2023-04-25T05:06:16;99723.56;;;9.12
73734;BMP280;62039;50.000;9.064;2023-04-25T05:08:43;99726.53;;;9.09
73734;BMP280;62039;50.000;9.064;2023-04-25T05:11:10;99727.50;;;9.08
73734;BMP280;62039;50.000;9.064;2023-04-25T05:13:37;99729.44;;;9.06
73734;BMP280;62039;50.000;9.064;2023-04-25T05:16:04;99728.81;;;9.03
73734;BMP280;62039;50.000;9.064;2023-04-25T05:18:31;99746.72;;;8.98
73734;BMP280;62039;50.000;9.064;2023-04-25T05:20:58;99744.09;;;8.90
73734;BMP280;62039;50.000;9.064;2023-04-25T05:23:27;99746.72;;;8.82
73734;BMP280;62039;50.000;9.064;2023-04-25T05:25:54;99751.78;;;8.76
73734;BMP280;62039;50.000;9.064;2023-04-25T05:28:21;99753.22;;;8.70
73734;BMP280;62039;50.000;9.064;2023-04-25T05:30:48;99760.38;;;8.68
73734;BMP280;62039;50.000;9.064;2023-04-25T05:33:15;99758.75;;;8.67
73734;BMP280;62039;50.000;9.064;2023-04-25T05:35:42;99763.97;;;8.67
73734;BMP280;62039;50.000;9.064;2023-04-25T05:38:09;99773.56;;;8.67
73734;BMP280;62039;50.000;9.064;2023-04-25T05:40:39;99772.75;;;8.66
73734;BMP280;62039;50.000;9.064;2023-04-25T05:43:05;99781.66;;;8.63
73734;BMP280;62039;50.000;9.064;2023-04-25T05:45:32;99780.50;;;8.58
73734;BMP280;62039;50.000;9.064;2023-04-25T05:47:59;99778.88;;;8.57
73734;BMP280;62039;50.000;9.064;2023-04-25T05:50:26;99785.88;;;8.56
73734;BMP280;62039;50.000;9.064;2023-04-25T05:52:53;99787.50;;;8.57
73734;BMP280;62039;50.000;9.064;2023-04-25T05:55:20;99786.69;;;8.57
73734;BMP280;62039;50.000;9.064;2023-04-25T05:57:50;99786.88;;;8.55
73734;BMP280;62039;50.000;9.064;2023-04-25T06:00:17;99800.03;;;8.54
73734;BMP280;62039;50.000;9.064;2023-04-25T06:02:44;99795.13;;;8.51
73734;BMP280;62039;50.000;9.064;2023-04-25T06:05:11;99803.75;;;8.51
73734;BMP280;62039;50.000;9.064;2023-04-25T06:07:38;99805.53;;;8.51
73734;BMP280;62039;50.000;9.064;2023-04-25T06:10:07;99804.72;;;8.50
73734;BMP280;62039;50.000;9.064;2023-04-25T06:12:34;99815.94;;;8.51
73734;BMP280;62039;50.000;9.064;2023-04-25T06:15:04;99806.19;;;8.53
73734;BMP280;62039;50.000;9.064;2023-04-25T06:17:49;99807.84;;;8.54
73734;BMP280;62039;50.000;9.064;2023-04-25T06:20:16;99813.38;;;8.59
73734;BMP280;62039;50.000;9.064;2023-04-25T06:22:43;99808.53;;;8.64
73734;BMP280;62039;50.000;9.064;2023-04-25T06:25:10;99809.69;;;8.70
73734;BMP280;62039;50.000;9.064;2023-04-25T06:27:37;99809.06;;;8.76
73734;BMP280;62039;50.000;9.064;2023-04-25T06:30:08;99806.63;;;8.82
73734;BMP280;62039;50.000;9.064;2023-04-25T06:32:35;99804.34;;;8.87
73734;BMP280;62039;50.000;9.064;2023-04-25T06:35:02;99800.13;;;8.94
73734;BMP280;62039;50.000;9.064;2023-04-25T06:37:30;99794.91;;;9.02
73734;BMP280;62039;50.000;9.064;2023-04-25T06:39:57;99800.94;;;9.11
73734;BMP280;62039;50.000;9.064;2023-04-25T06:42:24;99795.56;;;9.21
73734;BMP280;62039;50.000;9.064;2023-04-25T06:44:51;99798.78;;;9.31
73734;BMP280;62039;50.000;9.064;2023-04-25T06:47:20;99792.28;;;9.43
73734;BMP280;62039;50.000;9.064;2023-04-25T06:49:47;99802.53;;;9.53
73734;BMP280;62039;50.000;9.064;2023-04-25T06:52:14;99795.53;;;9.61
73734;BMP280;62039;50.000;9.064;2023-04-25T06:54:41;99789.50;;;9.69
73734;BMP280;62039;50.000;9.064;2023-04-25T06:57:08;99791.44;;;9.75
73734;BMP280;62039;50.000;9.064;2023-04-25T06:59:35;99797.13;;;9.78
73734;BMP280;62039;50.000;9.064;2023-04-25T07:02:02;99796.78;;;9.81
73734;BMP280;62039;50.000;9.064;2023-04-25T07:04:31;99792.84;;;9.86
73734;BMP280;62039;50.000;9.064;2023-04-25T07:06:59;99788.13;;;9.89
73734;BMP280;62039;50.000;9.064;2023-04-25T07:09:25;99791.69;;;9.96
73734;BMP280;62039;50.000;9.064;2023-04-25T07:11:52;99784.97;;;10.02
73734;BMP280;62039;50.000;9.064;2023-04-25T07:14:19;99788.53;;;10.09
73734;BMP280;62039;50.000;9.064;2023-04-25T07:16:46;99782.97;;;10.12
73734;BMP280;62039;50.000;9.064;2023-04-25T07:19:13;99781.00;;;10.14
73734;BMP280;62039;50.000;9.064;2023-04-25T07:21:43;99794.06;;;10.14
73734;BMP280;62039;50.000;9.064;2023-04-25T07:24:09;99783.47;;;10.15
73734;BMP280;62039;50.000;9.064;2023-04-25T07:26:36;99789.94;;;10.19
73734;BMP280;62039;50.000;9.064;2023-04-25T07:29:03;99792.41;;;10.21
73734;BMP280;62039;50.000;9.064;2023-04-25T07:31:30;99793.06;;;10.23
73734;BMP280;62039;50.000;9.064;2023-04-25T07:33:57;99801.00;;;10.30
73734;BMP280;62039;50.000;9.064;2023-04-25T07:36:27;99802.13;;;10.35
73734;BMP280;62039;50.000;9.064;2023-04-25T07:38:57;99812.84;;;10.40
73734;BMP280;62039;50.000;9.064;2023-04-25T07:41:24;99815.59;;;10.47
73734;BMP280;62039;50.000;9.064;2023-04-25T07:43:50;99817.06;;;10.49
73734;BMP280;62039;50.000;9.064;2023-04-25T07:46:17;99817.06;;;10.49
73734;BMP280;62039;50.000;9.064;2023-04-25T07:48:44;99817.88;;;10.50
73734;BMP280;62039;50.000;9.064;2023-04-25T07:51:11;99812.81;;;10.48
73734;BMP280;62039;50.000;9.064;2023-04-25T07:53:38;99813.47;;;10.50
73734;BMP280;62039;50.000;9.064;2023-04-25T07:56:08;99821.16;;;10.52
73734;BMP280;62039;50.000;9.064;2023-04-25T07:58:35;99821.94;;;10.52
73734;BMP280;62039;50.000;9.064;2023-04-25T08:01:02;99817.88;;;10.50
73734;BMP280;62039;50.000;9.064;2023-04-25T08:03:29;99823.28;;;10.48
73734;BMP280;62039;50.000;9.064;2023-04-25T08:05:57;99831.59;;;10.52
73734;BMP280;62039;50.000;9.064;2023-04-25T08:08:24;99827.31;;;10.59
73734;BMP280;62039;50.000;9.064;2023-04-25T08:10:51;99828.91;;;10.68
73734;BMP280;62039;50.000;9.064;2023-04-25T08:13:21;99838.16;;;10.79
73734;BMP280;62039;50.000;9.064;2023-04-25T08:15:48;99831.88;;;10.88
73734;BMP280;62039;50.000;9.064;2023-04-25T08:18:15;99842.94;;;10.98
73734;BMP280;62039;50.000;9.064;2023-04-25T08:20:43;99846.28;;;11.07
73734;BMP280;62039;50.000;9.064;2023-04-25T08:23:10;99846.06;;;11.16
73734;BMP280;62039;50.000;9.064;2023-04-25T08:25:37;99843.88;;;11.20
73734;BMP280;62039;50.000;9.064;2023-04-25T08:28:05;99849.75;;;11.22
73734;BMP280;62039;50.000;9.064;2023-04-25T08:30:36;99861.69;;;11.24
73734;BMP280;62039;50.000;9.064;2023-04-25T08:33:03;99857.88;;;11.27
73734;BMP280;62039;50.000;9.064;2023-04-25T08:35:30;99866.38;;;11.29
73734;BMP280;62039;50.000;9.064;2023-04-25T08:37:57;99870.44;;;11.31
73734;BMP280;62039;50.000;9.064;2023-04-25T08:40:27;99869.16;;;11.27
73734;BMP280;62039;50.000;9.064;2023-04-25T08:42:55;99876.72;;;11.22
73734;BMP280;62039;50.000;9.064;2023-04-25T08:45:24;99867.94;;;11.15
73734;BMP280;62039;50.000;9.064;2023-04-25T08:47:54;99876.94;;;11.13
73734;BMP280;62039;50.000;9.064;2023-04-25T08:50:23;99879.38;;;11.14
73734;BMP280;62039;50.000;9.064;2023-04-25T08:52:53;99873.81;;;11.17
73734;BMP280;62039;50.000;9.064;2023-04-25T08:55:21;99877.09;;;11.19
73734;BMP280;62039;50.000;9.064;2023-04-25T08:57:49;99890.44;;;11.24
73734;BMP280;62039;50.000;9.064;2023-04-25T09:00:18;99882.75;;;11.23
73734;BMP280;62039;50.000;9.064;2023-04-25T09:02:46;99881.94;;;11.22
73734;BMP280;62039;50.000;9.064;2023-04-25T09:05:16;99886.63;;;11.27
73734;BMP280;62039;50.000;9.064;2023-04-25T09:07:47;99889.38;;;11.33
73734;BMP280;62039;50.000;9.064;2023-04-25T09:10:16;99885.88;;;11.41
73734;BMP280;62039;50.000;9.064;2023-04-25T09:12:43;99896.16;;;11.51
73734;BMP280;62039;50.000;9.064;2023-04-25T09:15:12;99893.75;;;11.64
73734;BMP280;62039;50.000;9.064;2023-04-25T09:17:55;99896.72;;;11.75
73734;BMP280;62039;50.000;9.064;2023-04-25T09:20:25;99905.97;;;11.86
73734;BMP280;62039;50.000;9.064;2023-04-25T09:23:01;99902.44;;;11.94
73734;BMP280;62039;50.000;9.064;2023-04-25T09:25:34;99901.38;;;12.03
73734;BMP280;62039;50.000;9.064;2023-04-25T09:28:03;99910.31;;;12.08
73734;BMP280;62039;50.000;9.064;2023-04-25T09:30:32;99912.56;;;12.11
73734;BMP280;62039;50.000;9.064;2023-04-25T09:33:04;99907.59;;;12.16
73734;BMP280;62039;50.000;9.064;2023-04-25T09:35:38;99905.72;;;12.25
73734;BMP280;62039;50.000;9.064;2023-04-25T09:38:10;99912.72;;;12.33
73734;BMP280;62039;50.000;9.064;2023-04-25T09:40:40;99917.66;;;12.42
73734;BMP280;62039;50.000;9.064;2023-04-25T09:43:10;99920.34;;;12.49
73734;BMP280;62039;50.000;9.064;2023-04-25T09:45:43;99916.56;;;12.51
73734;BMP280;62039;50.000;9.064;2023-04-25T09:48:10;99922.97;;;12.49
73734;BMP280;62039;50.000;9.064;2023-04-25T09:50:40;99924.59;;;12.50
73734;BMP280;62039;50.000;9.064;2023-04-25T09:53:07;99919.00;;;12.53
73734;BMP280;62039;50.000;9.064;2023-04-25T09:55:34;99927.47;;;12.55
73734;BMP280;62039;50.000;9.064;2023-04-25T09:58:04;99920.44;;;12.55
73734;BMP280;62039;50.000;9.064;2023-04-25T10:00:32;99931.31;;;12.52
73734;BMP280;62039;50.000;9.064;2023-04-25T10:03:01;99936.72;;;12.51
73734;BMP280;62039;50.000;9.064;2023-04-25T10:05:30;99936.81;;;12.43
73734;BMP280;62039;50.000;9.064;2023-04-25T10:08:03;99934.63;;;12.32
73734;BMP280;62039;50.000;9.064;2023-04-25T10:10:30;99945.81;;;12.26
73734;BMP280;62039;50.000;9.064;2023-04-25T10:12:58;99946.97;;;12.23
73734;BMP280;62039;50.000;9.064;2023-04-25T10:15:25;99944.34;;;12.23
73734;BMP280;62039;50.000;9.064;2023-04-25T10:17:52;99950.41;;;12.24
73734;BMP280;62039;50.000;9.064;2023-04-25T10:20:20;99960.88;;;12.24
73734;BMP280;62039;50.000;9.064;2023-04-25T10:22:47;99960.44;;;12.20
73734;BMP280;62039;50.000;9.064;2023-04-25T10:25:17;99966.38;;;12.14
73734;BMP280;62039;50.000;9.064;2023-04-25T10:27:45;99963.47;;;12.09
73734;BMP280;62039;50.000;9.064;2023-04-25T10:30:14;99960.25;;;12.07
73734;BMP280;62039;50.000;9.064;2023-04-25T10:32:42;99961.56;;;12.03
73734;BMP280;62039;50.000;9.064;2023-04-25T10:35:13;99959.78;;;12.03
73734;BMP280;62039;50.000;9.064;2023-04-25T10:37:56;99958.84;;;11.96
73734;BMP280;62039;50.000;9.064;2023-04-25T10:40:26;99952.38;;;11.92
73734;BMP280;62039;50.000;9.064;2023-04-25T10:42:53;99967.59;;;11.89
73734;BMP280;62039;50.000;9.064;2023-04-25T10:45:20;99959.00;;;11.80
73734;BMP280;62039;50.000;9.064;2023-04-25T10:47:48;99965.31;;;11.71
73734;BMP280;62039;50.000;9.064;2023-04-25T10:50:16;99961.13;;;11.62
73734;BMP280;62039;50.000;9.064;2023-04-25T10:52:43;99965.41;;;11.55
73734;BMP280;62039;50.000;9.064;2023-04-25T10:55:10;99970.53;;;11.48
73734;BMP280;62039;50.000;9.064;2023-04-25T10:57:41;99970.06;;;11.45
73734;BMP280;62039;50.000;9.064;2023-04-25T11:00:11;99960.28;;;11.38
73734;BMP280;62039;50.000;9.064;2023-04-25T11:02:41;99973.34;;;11.38
73734;BMP280;62039;50.000;9.064;2023-04-25T11:05:09;99971.56;;;11.39
73734;BMP280;62039;50.000;9.064;2023-04-25T11:07:49;99965.50;;;11.38
73734;BMP280;62039;50.000;9.064;2023-04-25T11:10:33;99975.84;;;11.32
73734;BMP280;62039;50.000;9.064;2023-04-25T11:13:03;99982.22;;;11.29
73734;BMP280;62039;50.000;9.064;2023-04-25T11:15:30;99983.22;;;11.28
73734;BMP280;62039;50.000;9.064;2023-04-25T11:17:57;99985.19;;;11.26
73734;BMP280;62039;50.000;9.064;2023-04-25T11:20:25;99987.00;;;11.26
73734;BMP280;62039;50.000;9.064;2023-04-25T11:22:52;99989.13;;;11.22
73734;BMP280;62039;50.000;9.064;2023-04-25T11:25:19;99987.66;;;11.20
73734;BMP280;62039;50.000;9.064;2023-04-25T11:27:50;99992.78;;;11.13
73734;BMP280;62039;50.000;9.064;2023-04-25T11:30:21;99995.09;;;11.08
73734;BMP280;62039;50.000;9.064;2023-04-25T11:32:48;99988.59;;;11.04
73734;BMP280;62039;50.000;9.064;2023-04-25T11:35:16;100008.38;;;10.98
73734;BMP280;62039;50.000;9.064;2023-04-25T11:37:43;100006.25;;;10.94
73734;BMP280;62039;50.000;9.064;2023-04-25T11:40:11;99998.59;;;10.92
73734;BMP280;62039;50.000;9.064;2023-04-25T11:42:38;100006.63;;;10.91
73734;BMP280;62039;50.000;9.064;2023-04-25T11:45:06;99991.91;;;10.90
73734;BMP280;62039;50.000;9.064;2023-04-25T11:47:36;99999.09;;;10.88
73734;BMP280;62039;50.000;9.064;2023-04-25T11:50:05;100005.31;;;10.87
73734;BMP280;62039;50.000;9.064;2023-04-25T11:52:38;100007.94;;;10.87
73734;BMP280;62039;50.000;9.064;2023-04-25T11:55:08;100010.38;;;10.88
73734;BMP280;62039;50.000;9.064;2023-04-25T11:57:38;100013.47;;;10.92
73734;BMP280;62039;50.000;9.064;2023-04-25T12:00:10;100014.25;;;10.92
73734;BMP280;62039;50.000;9.064;2023-04-25T12:02:43;100015.59;;;10.88
73734;BMP280;62039;50.000;9.064;2023-04-25T12:05:12;100013.50;;;10.84
73734;BMP280;62039;50.000;9.064;2023-04-25T12:07:57;100014.66;;;10.81
73734;BMP280;62039;50.000;9.064;2023-04-25T12:10:24;100020.69;;;10.82
73734;BMP280;62039;50.000;9.064;2023-04-25T12:12:51;100024.97;;;10.75
73734;BMP280;62039;50.000;9.064;2023-04-25T12:15:23;100028.25;;;10.69
73734;BMP280;62039;50.000;9.064;2023-04-25T12:17:53;100025.94;;;10.66
73734;BMP280;62039;50.000;9.064;2023-04-25T12:20:24;100034.94;;;10.63
73734;BMP280;62039;50.000;9.064;2023-04-25T12:22:51;100032.66;;;10.60
73734;BMP280;62039;50.000;9.064;2023-04-25T12:25:34;100038.06;;;10.58
73734;BMP280;62039;50.000;9.064;2023-04-25T12:28:12;100037.25;;;10.58
73734;BMP280;62039;50.000;9.064;2023-04-25T12:30:55;100041.16;;;10.62
73734;BMP280;62039;50.000;9.064;2023-04-25T12:33:27;100040.84;;;10.65
73734;BMP280;62039;50.000;9.064;2023-04-25T12:35:54;100047.66;;;10.66
73734;BMP280;62039;50.000;9.064;2023-04-25T12:38:22;100047.19;;;10.71
73734;BMP280;62039;50.000;9.064;2023-04-25T12:40:49;100045.84;;;10.75
73734;BMP280;62039;50.000;9.064;2023-04-25T12:43:16;100045.53;;;10.78
73734;BMP280;62039;50.000;9.064;2023-04-25T12:45:43;100047.16;;;10.79
73734;BMP280;62039;50.000;9.064;2023-04-25T12:48:10;100049.59;;;10.80
73734;BMP280;62039;50.000;9.064;2023-04-25T12:50:39;100041.44;;;10.83
73734;BMP280;62039;50.000;9.064;2023-04-25T12:53:06;100043.22;;;10.83
73734;BMP280;62039;50.000;9.064;2023-04-25T12:55:33;100042.09;;;10.85
73734;BMP280;62039;50.000;9.064;2023-04-25T12:58:00;100045.31;;;10.87
73734;BMP280;62039;50.000;9.064;2023-04-25T13:00:27;100054.28;;;10.93
73734;BMP280;62039;50.000;9.064;2023-04-25T13:02:55;100046.78;;;10.98
73734;BMP280;62039;50.000;9.064;2023-04-25T13:05:25;100051.47;;;11.03
73734;BMP280;62039;50.000;9.064;2023-04-25T13:07:54;100047.88;;;11.04
73734;BMP280;62039;50.000;9.064;2023-04-25T13:10:22;100045.59;;;11.00
73734;BMP280;62039;50.000;9.064;2023-04-25T13:12:49;100060.16;;;10.95
73734;BMP280;62039;50.000;9.064;2023-04-25T13:15:16;100050.38;;;10.89
73734;BMP280;62039;50.000;9.064;2023-04-25T13:17:43;100048.09;;;10.86
73734;BMP280;62039;50.000;9.064;2023-04-25T13:20:10;100049.09;;;10.85
73734;BMP280;62039;50.000;9.064;2023-04-25T13:22:37;100052.84;;;10.82
73734;BMP280;62039;50.000;9.064;2023-04-25T13:25:08;100057.94;;;10.84
73734;BMP280;62039;50.000;9.064;2023-04-25T13:27:36;100057.75;;;10.85
73734;BMP280;62039;50.000;9.064;2023-04-25T13:30:05;100066.22;;;10.87
73734;BMP280;62039;50.000;9.064;2023-04-25T13:32:32;100067.03;;;10.88
73734;BMP280;62039;50.000;9.064;2023-04-25T13:34:59;100071.94;;;10.91
73734;BMP280;62039;50.000;9.064;2023-04-25T13:37:30;100065.56;;;10.93
73734;BMP280;62039;50.000;9.064;2023-04-25T13:39:57;100067.69;;;10.98
73734;BMP280;62039;50.000;9.064;2023-04-25T13:42:26;100065.38;;;11.03
73734;BMP280;62039;50.000;9.064;2023-04-25T13:44:53;100072.22;;;11.04
73734;BMP280;62039;50.000;9.064;2023-04-25T13:47:20;100067.47;;;11.08
73734;BMP280;62039;50.000;9.064;2023-04-25T13:49:47;100064.69;;;11.09
73734;BMP280;62039;50.000;9.064;2023-04-25T13:52:14;100065.34;;;11.11
73734;BMP280;62039;50.000;9.064;2023-04-25T13:54:41;100067.59;;;11.14
73734;BMP280;62039;50.000;9.064;2023-04-25T13:57:08;100060.75;;;11.13
73734;BMP280;62039;50.000;9.064;2023-04-25T13:59:38;100068.13;;;11.10
73734;BMP280;62039;50.000;9.064;2023-04-25T14:02:05;100066.03;;;11.05
73734;BMP280;62039;50.000;9.064;2023-04-25T14:04:32;100073.88;;;11.05
73734;BMP280;62039;50.000;9.064;2023-04-25T14:06:59;100066.47;;;11.09
73734;BMP280;62039;50.000;9.064;2023-04-25T14:09:26;100068.56;;;11.13
73734;BMP280;62039;50.000;9.064;2023-04-25T14:11:53;100066.28;;;11.18
73734;BMP280;62039;50.000;9.064;2023-04-25T14:14:20;100062.19;;;11.24
73734;BMP280;62039;50.000;9.064;2023-04-25T14:16:51;100069.19;;;11.31